Time;durP1;ratioP1;P1;durP2;ratioP2;P2;SDS_P1;SDS_P2;PMS_P1;PMS_P2;Temp;Humidity;BMP_temperature;BMP_pressure;BME280_temperature;BME280_humidity;BME280_pressure;Samples;Min_cycle;Max_cycle;Signal;HPM_P1;HPM_P2
2021/08/14 00:00:05;;;;;;;9.37;6.73;;;15.20;99.90;;;;;;5053094;28;20209;-63
2021/08/14 00:02:32;;;;;;;10.10;5.63;;;15.20;99.90;;;;;;5052898;28;20221;-62
2021/08/14 00:05:00;;;;;;;13.90;6.60;;;15.20;99.90;;;;;;5052956;28;20209;-64
2021/08/14 00:07:28;;;;;;;12.50;6.50;;;15.20;99.90;;;;;;5052258;28;20209;-64
2021/08/14 00:09:54;;;;;;;15.03;6.33;;;15.10;99.90;;;;;;5052704;28;20225;-62
2021/08/14 00:12:21;;;;;;;12.50;5.73;;;15.10;99.90;;;;;;5052704;28;20206;-64
2021/08/14 00:14:47;;;;;;;12.03;6.07;;;15.10;1.00;;;;;;5052519;28;20210;-63
2021/08/14 00:17:14;;;;;;;12.47;6.30;;;15.10;1.00;;;;;;5052311;28;20264;-65
2021/08/14 00:19:41;;;;;;;12.40;6.10;;;15.10;1.00;;;;;;5052442;28;20666;-62
2021/08/14 00:22:07;;;;;;;12.90;5.90;;;15.10;20.20;;;;;;5052158;28;20260;-63
2021/08/14 00:24:35;;;;;;;9.50;5.97;;;15.00;99.90;;;;;;5052377;28;20201;-63
2021/08/14 00:27:02;;;;;;;8.50;5.50;;;15.00;99.90;;;;;;5052280;28;20238;-63
2021/08/14 00:29:28;;;;;;;11.57;6.60;;;15.00;99.90;;;;;;5052425;28;20276;-63
2021/08/14 00:31:55;;;;;;;9.33;5.93;;;15.00;99.90;;;;;;5052057;28;20241;-63
2021/08/14 00:34:22;;;;;;;12.37;6.60;;;14.90;99.90;;;;;;5052060;28;20210;-63
2021/08/14 00:36:48;;;;;;;11.03;6.13;;;14.90;99.90;;;;;;5051760;28;20259;-63
2021/08/14 00:39:15;;;;;;;11.90;6.00;;;14.90;99.90;;;;;;5052482;28;20642;-63
2021/08/14 00:41:43;;;;;;;11.77;6.57;;;14.90;99.90;;;;;;5052212;28;20272;-63
2021/08/14 00:44:09;;;;;;;9.10;6.30;;;14.80;99.90;;;;;;5051945;28;20259;-63
2021/08/14 00:46:36;;;;;;;12.27;6.50;;;14.80;99.90;;;;;;5051858;28;20213;-63
2021/08/14 00:49:03;;;;;;;14.03;6.63;;;14.80;1.00;;;;;;5052177;28;20226;-62
2021/08/14 00:51:30;;;;;;;10.63;6.30;;;14.80;99.90;;;;;;5052102;28;20959;-63
2021/08/14 00:53:57;;;;;;;10.40;6.43;;;14.80;99.90;;;;;;5052089;28;20206;-63
2021/08/14 00:56:26;;;;;;;10.40;7.13;;;14.80;99.90;;;;;;5051930;28;20743;-63
2021/08/14 00:58:55;;;;;;;12.17;6.70;;;14.80;1.00;;;;;;5051938;28;20204;-63
2021/08/14 01:01:23;;;;;;;12.63;6.90;;;14.80;99.90;;;;;;5052024;28;20283;-63
2021/08/14 01:03:51;;;;;;;15.80;6.93;;;14.80;99.90;;;;;;5050918;28;20666;-62
2021/08/14 01:06:17;;;;;;;15.77;6.97;;;14.80;1.00;;;;;;5051475;28;20677;-62
2021/08/14 01:08:44;;;;;;;10.83;6.43;;;14.80;99.90;;;;;;5051535;28;20263;-63
2021/08/14 01:11:12;;;;;;;11.67;6.37;;;14.90;1.00;;;;;;5051616;28;20283;-62
2021/08/14 01:13:40;;;;;;;13.60;6.57;;;14.90;1.00;;;;;;5051358;28;20270;-63
2021/08/14 01:16:08;;;;;;;12.10;6.43;;;14.90;1.00;;;;;;5051306;28;20319;-65
2021/08/14 01:18:38;;;;;;;9.83;6.33;;;14.90;1.00;;;;;;5051448;28;20614;-62
2021/08/14 01:21:05;;;;;;;11.70;7.47;;;14.90;99.90;;;;;;5051756;28;20221;-63
2021/08/14 01:23:32;;;;;;;13.90;7.00;;;14.80;99.90;;;;;;5051403;28;20255;-62
2021/08/14 01:26:04;;;;;;;12.63;7.23;;;14.80;99.90;;;;;;5051271;28;20209;-62
2021/08/14 01:28:32;;;;;;;13.13;6.50;;;14.80;1.00;;;;;;5051376;28;20216;-62
2021/08/14 01:31:00;;;;;;;10.13;6.93;;;14.70;1.00;;;;;;5051284;28;20237;-62
2021/08/14 01:33:29;;;;;;;13.13;7.27;;;14.70;1.00;;;;;;5051504;28;20206;-64
2021/08/14 01:35:55;;;;;;;12.20;7.63;;;14.70;1.00;;;;;;5051860;28;20255;-63
2021/08/14 01:38:22;;;;;;;9.67;6.80;;;14.70;1.00;;;;;;5049649;28;20210;-62
2021/08/14 01:40:49;;;;;;;14.10;7.37;;;14.70;1.00;;;;;;5051358;28;20225;-62
2021/08/14 01:43:15;;;;;;;12.33;7.53;;;14.70;3.60;;;;;;5050847;28;20217;-63
2021/08/14 01:45:43;;;;;;;14.77;7.57;;;14.70;99.90;;;;;;5051122;28;20673;-62
2021/08/14 01:48:10;;;;;;;10.83;8.17;;;14.70;99.90;;;;;;5051477;28;20205;-62
2021/08/14 01:50:36;;;;;;;13.33;8.20;;;14.60;1.00;;;;;;5050595;28;20237;-62
2021/08/14 01:53:03;;;;;;;11.53;7.80;;;14.60;8.90;;;;;;5051480;28;20206;-63
2021/08/14 01:55:30;;;;;;;15.97;7.87;;;14.60;99.90;;;;;;5049388;28;20266;-63
2021/08/14 01:57:56;;;;;;;14.90;8.80;;;14.50;99.90;;;;;;5050776;28;20202;-63
2021/08/14 02:00:23;;;;;;;15.73;9.17;;;14.50;99.90;;;;;;5051090;28;20282;-62
2021/08/14 02:02:51;;;;;;;13.90;8.70;;;14.50;1.00;;;;;;5051229;28;20259;-62
2021/08/14 02:05:18;;;;;;;14.83;8.80;;;14.50;99.90;;;;;;5051128;28;20255;-63
2021/08/14 02:07:45;;;;;;;13.37;9.20;;;14.60;99.90;;;;;;5051040;28;20205;-63
2021/08/14 02:10:12;;;;;;;13.07;8.57;;;14.70;1.00;;;;;;5051010;28;20232;-63
2021/08/14 02:12:38;;;;;;;13.73;8.80;;;14.80;1.00;;;;;;5048827;28;20213;-63
2021/08/14 02:15:06;;;;;;;13.57;9.00;;;14.80;22.60;;;;;;5051070;28;20274;-63
2021/08/14 02:17:33;;;;;;;15.10;9.23;;;14.90;99.90;;;;;;5054849;28;20271;-63
2021/08/14 02:20:01;;;;;;;12.20;8.97;;;14.90;99.90;;;;;;5054947;28;20201;-62
2021/08/14 02:22:28;;;;;;;16.03;9.67;;;15.00;1.00;;;;;;5054568;28;20201;-62
2021/08/14 02:24:54;;;;;;;14.73;8.80;;;15.00;1.00;;;;;;5054149;28;20638;-63
2021/08/14 02:27:21;;;;;;;13.53;9.23;;;15.10;1.00;;;;;;5054855;28;20213;-62
2021/08/14 02:29:47;;;;;;;15.87;9.43;;;15.10;99.90;;;;;;5053065;28;20611;-63
2021/08/14 02:32:14;;;;;;;13.83;8.93;;;15.10;87.60;;;;;;5054807;28;20259;-62
2021/08/14 02:34:42;;;;;;;14.63;8.73;;;15.10;1.00;;;;;;5054103;28;20209;-62
2021/08/14 02:37:10;;;;;;;15.97;9.73;;;15.10;1.00;;;;;;5054229;28;20206;-62
2021/08/14 02:39:36;;;;;;;16.97;9.50;;;15.10;99.90;;;;;;5054201;28;20206;-63
2021/08/14 02:42:03;;;;;;;15.10;9.37;;;15.10;99.90;;;;;;5054373;28;20225;-65
2021/08/14 02:44:30;;;;;;;14.70;8.83;;;15.10;99.90;;;;;;5054263;28;20202;-63
2021/08/14 02:46:56;;;;;;;14.27;9.27;;;15.10;99.90;;;;;;5052302;28;20256;-63
2021/08/14 02:49:23;;;;;;;16.00;9.23;;;15.10;99.90;;;;;;5054318;28;20206;-65
2021/08/14 02:51:49;;;;;;;15.87;9.50;;;15.10;99.90;;;;;;5054053;28;20268;-63
2021/08/14 02:54:17;;;;;;;14.67;8.17;;;15.10;99.90;;;;;;5053770;28;20570;-63
2021/08/14 02:56:44;;;;;;;16.53;9.03;;;15.10;99.90;;;;;;5053730;28;20255;-62
2021/08/14 02:59:10;;;;;;;15.80;8.53;;;15.00;99.90;;;;;;5054074;28;20627;-63
2021/08/14 03:01:37;;;;;;;14.67;9.03;;;15.00;99.90;;;;;;5054121;28;20229;-62
2021/08/14 03:04:04;;;;;;;15.60;9.07;;;14.90;1.00;;;;;;5052102;28;20255;-63
2021/08/14 03:06:30;;;;;;;18.80;10.10;;;14.90;1.00;;;;;;5053847;28;20782;-63
2021/08/14 03:08:57;;;;;;;17.87;10.60;;;14.80;99.90;;;;;;5053655;28;20220;-62
2021/08/14 03:11:25;;;;;;;17.07;10.23;;;14.80;99.90;;;;;;5053641;28;20233;-62
2021/08/14 03:13:52;;;;;;;14.73;9.73;;;14.80;99.90;;;;;;5053760;28;20622;-62
2021/08/14 03:16:19;;;;;;;14.77;9.50;;;14.70;99.90;;;;;;5053390;28;20205;-62
2021/08/14 03:18:46;;;;;;;19.03;10.60;;;14.70;99.90;;;;;;5053890;28;20217;-63
2021/08/14 03:21:12;;;;;;;17.53;9.37;;;14.60;1.00;;;;;;5051597;28;20716;-63
2021/08/14 03:23:39;;;;;;;17.40;9.57;;;14.60;99.90;;;;;;5053570;28;20213;-62
2021/08/14 03:26:05;;;;;;;18.17;9.97;;;14.50;1.00;;;;;;5053153;28;20644;-62
2021/08/14 03:28:33;;;;;;;18.43;10.67;;;14.50;89.20;;;;;;5033510;28;20202;-63
2021/08/14 03:31:00;;;;;;;17.80;10.87;;;14.50;99.90;;;;;;5033385;28;20238;-64
2021/08/14 03:33:27;;;;;;;18.53;10.77;;;14.50;1.00;;;;;;5033561;28;20206;-62
2021/08/14 03:35:54;;;;;;;18.37;10.53;;;14.50;71.90;;;;;;5040353;28;20254;-62
2021/08/14 03:38:20;;;;;;;17.00;10.63;;;14.40;99.90;;;;;;5051874;28;20213;-64
2021/08/14 03:40:47;;;;;;;17.33;10.93;;;14.40;1.00;;;;;;5052899;28;20229;-63
2021/08/14 03:43:18;;;;;;;18.27;11.10;;;14.40;17.70;;;;;;5053040;28;20615;-62
2021/08/14 03:45:46;;;;;;;19.93;10.90;;;14.40;99.90;;;;;;5053230;28;20233;-63
2021/08/14 03:48:13;;;;;;;16.07;10.70;;;14.40;99.90;;;;;;5053125;28;20274;-64
2021/08/14 03:50:39;;;;;;;16.50;11.20;;;14.40;99.90;;;;;;5052622;28;20270;-63
2021/08/14 03:53:06;;;;;;;16.27;10.63;;;14.40;99.90;;;;;;5053152;28;20235;-63
2021/08/14 03:55:32;;;;;;;21.20;10.57;;;14.40;1.00;;;;;;5037867;28;20626;-62
2021/08/14 03:57:59;;;;;;;19.70;11.57;;;14.40;99.90;;;;;;5032969;28;20557;-63
2021/08/14 04:00:26;;;;;;;15.27;10.80;;;14.40;99.90;;;;;;5032725;28;20284;-63
2021/08/14 04:02:54;;;;;;;20.07;11.67;;;14.40;99.90;;;;;;5032602;28;20562;-63
2021/08/14 04:05:20;;;;;;;17.20;11.13;;;14.40;99.90;;;;;;5032948;28;20210;-63
2021/08/14 04:07:47;;;;;;;19.07;11.60;;;14.40;99.90;;;;;;5032911;28;20212;-63
2021/08/14 04:10:14;;;;;;;18.63;11.40;;;14.40;99.90;;;;;;5032821;28;20237;-62
2021/08/14 04:12:41;;;;;;;19.70;11.00;;;14.50;99.90;;;;;;5030764;28;20211;-64
2021/08/14 04:15:08;;;;;;;18.73;11.20;;;14.50;10.20;;;;;;5032736;28;20240;-63
2021/08/14 04:17:36;;;;;;;21.90;12.13;;;14.60;1.00;;;;;;5032426;28;20762;-63
2021/08/14 04:20:05;;;;;;;17.67;12.23;;;14.60;99.90;;;;;;5032972;28;20213;-62
2021/08/14 04:22:32;;;;;;;16.67;11.13;;;14.60;99.90;;;;;;5032740;28;20622;-63
2021/08/14 04:24:59;;;;;;;18.20;11.60;;;14.60;99.90;;;;;;5032402;28;20206;-62
2021/08/14 04:27:26;;;;;;;21.97;12.17;;;14.60;99.90;;;;;;5040327;28;20208;-64
2021/08/14 04:29:52;;;;;;;19.47;10.60;;;14.60;99.90;;;;;;5050307;28;20218;-63
2021/08/14 04:32:19;;;;;;;16.97;10.53;;;14.60;99.90;;;;;;5052413;28;20390;-62
2021/08/14 04:34:46;;;;;;;20.07;11.73;;;14.60;1.00;;;;;;5051617;28;20271;-63
2021/08/14 04:37:14;;;;;;;17.57;11.00;;;14.60;99.90;;;;;;5052199;28;20255;-63
2021/08/14 04:39:41;;;;;;;19.93;11.23;;;14.60;1.00;;;;;;5051609;28;20210;-63
2021/08/14 04:42:07;;;;;;;23.03;12.30;;;14.60;99.90;;;;;;5052034;28;20226;-62
2021/08/14 04:44:34;;;;;;;17.77;10.73;;;14.60;1.00;;;;;;5051859;28;20236;-63
2021/08/14 04:47:02;;;;;;;18.00;10.60;;;14.60;1.00;;;;;;5036733;28;20615;-62
2021/08/14 04:49:29;;;;;;;19.37;12.00;;;14.60;54.50;;;;;;5032494;28;20632;-63
2021/08/14 04:51:55;;;;;;;17.90;11.13;;;14.50;99.90;;;;;;5032165;28;20234;-63
2021/08/14 04:54:23;;;;;;;17.30;11.57;;;14.60;1.00;;;;;;5031993;28;20286;-65
2021/08/14 04:56:50;;;;;;;17.63;11.53;;;14.60;1.00;;;;;;5032044;28;20263;-62
2021/08/14 04:59:16;;;;;;;16.73;11.10;;;14.60;1.00;;;;;;5031810;28;20210;-63
2021/08/14 05:01:43;;;;;;;18.00;10.87;;;14.70;1.00;;;;;;5032408;28;20710;-61
2021/08/14 05:04:10;;;;;;;18.00;12.10;;;14.70;1.00;;;;;;5030442;28;20210;-63
2021/08/14 05:06:38;;;;;;;18.27;11.53;;;14.70;1.00;;;;;;5031978;28;20268;-62
2021/08/14 05:09:05;;;;;;;19.33;11.47;;;14.70;1.00;;;;;;5031790;28;20259;-63
2021/08/14 05:11:33;;;;;;;17.07;10.87;;;14.80;1.00;;;;;;5031420;28;20280;-63
2021/08/14 05:14:00;;;;;;;20.67;10.87;;;14.80;1.00;;;;;;5031487;28;20233;-63
2021/08/14 05:16:26;;;;;;;19.07;10.73;;;14.80;99.90;;;;;;5031588;28;20612;-61
2021/08/14 05:18:53;;;;;;;17.77;10.70;;;14.80;99.90;;;;;;5031980;28;20202;-64
2021/08/14 05:21:19;;;;;;;18.07;10.67;;;14.90;99.90;;;;;;5030015;28;20272;-63
2021/08/14 05:23:46;;;;;;;21.63;11.43;;;14.90;80.10;;;;;;5031485;28;20256;-62
2021/08/14 05:26:13;;;;;;;21.33;10.30;;;14.90;1.00;;;;;;5031179;28;20206;-65
2021/08/14 05:28:41;;;;;;;17.00;10.27;;;15.00;1.00;;;;;;5031476;28;20637;-63
2021/08/14 05:31:07;;;;;;;20.13;10.60;;;15.10;99.90;;;;;;5031454;28;20230;-62
2021/08/14 05:33:34;;;;;;;17.30;10.07;;;15.20;1.00;;;;;;5031479;28;20205;-62
2021/08/14 05:36:00;;;;;;;16.23;9.77;;;15.30;1.00;;;;;;5031540;28;20237;-62
2021/08/14 05:38:27;;;;;;;21.00;10.47;;;15.30;99.90;;;;;;5029606;28;20210;-65
2021/08/14 05:40:54;;;;;;;16.50;9.77;;;15.40;1.00;;;;;;5030949;28;20276;-62
2021/08/14 05:43:21;;;;;;;18.63;9.50;;;15.40;1.00;;;;;;5031221;28;20210;-62
2021/08/14 05:45:49;;;;;;;19.30;10.47;;;15.40;99.90;;;;;;5031421;28;20212;-64
2021/08/14 05:48:15;;;;;;;18.97;10.10;;;15.50;99.90;;;;;;5030309;28;20210;-63
2021/08/14 05:50:42;;;;;;;19.03;10.40;;;15.50;99.90;;;;;;5033652;28;20292;-63
2021/08/14 05:53:08;;;;;;;19.37;9.70;;;15.60;99.90;;;;;;5035305;28;20206;-62
2021/08/14 05:55:35;;;;;;;15.20;9.37;;;15.60;1.00;;;;;;5034986;28;20248;-63
2021/08/14 05:58:02;;;;;;;20.47;9.47;;;15.60;1.00;;;;;;5037781;28;20210;-62
2021/08/14 06:00:29;;;;;;;19.13;9.83;;;15.70;1.00;;;;;;5054525;28;20697;-62
2021/08/14 06:02:57;;;;;;;19.60;9.23;;;15.80;99.90;;;;;;5054554;28;20205;-63
2021/08/14 06:05:24;;;;;;;18.77;8.80;;;15.80;99.90;;;;;;5055010;28;20202;-62
2021/08/14 06:07:51;;;;;;;17.40;8.70;;;15.90;99.90;;;;;;5054734;28;20209;-63
2021/08/14 06:10:20;;;;;;;14.57;8.37;;;16.00;99.90;;;;;;5054714;28;20237;-62
2021/08/14 06:12:47;;;;;;;17.63;8.57;;;16.10;99.90;;;;;;5054981;28;20206;-63
2021/08/14 06:15:14;;;;;;;18.93;8.33;;;16.10;90.80;;;;;;5054957;28;20202;-62
2021/08/14 06:17:41;;;;;;;18.43;8.13;;;16.20;1.00;;;;;;5054961;28;20256;-62
2021/08/14 06:20:12;;;;;;;18.13;8.47;;;16.30;1.00;;;;;;5050552;28;20209;-59
2021/08/14 06:22:39;;;;;;;15.63;8.00;;;16.30;99.90;;;;;;5054210;28;20201;-60
2021/08/14 06:25:07;;;;;;;16.27;8.43;;;16.40;99.90;;;;;;5054524;28;20214;-60
2021/08/14 06:27:34;;;;;;;13.73;8.00;;;16.50;6.00;;;;;;5054603;28;20206;-59
2021/08/14 06:30:00;;;;;;;18.07;7.37;;;16.60;1.00;;;;;;5053785;28;20279;-60
2021/08/14 06:32:27;;;;;;;12.80;7.17;;;16.70;1.00;;;;;;5054237;28;20267;-60
2021/08/14 06:34:54;;;;;;;15.47;7.47;;;16.80;1.00;;;;;;5054109;28;20259;-61
2021/08/14 06:37:22;;;;;;;17.67;8.13;;;16.80;99.90;;;;;;5053821;28;20213;-61
2021/08/14 06:39:48;;;;;;;15.63;7.43;;;16.90;99.90;;;;;;5053681;28;20209;-60
2021/08/14 06:42:15;;;;;;;14.17;6.67;;;17.00;99.90;;;;;;5053937;28;20279;-62
2021/08/14 06:44:42;;;;;;;19.57;7.60;;;17.00;99.90;;;;;;5053919;28;20263;-63
2021/08/14 06:47:09;;;;;;;18.67;6.80;;;17.10;99.90;;;;;;5053778;28;20263;-62
2021/08/14 06:49:35;;;;;;;14.57;7.33;;;17.20;1.00;;;;;;5053331;28;20559;-62
2021/08/14 06:52:02;;;;;;;16.87;6.87;;;17.30;1.00;;;;;;5053795;28;20229;-62
2021/08/14 06:54:30;;;;;;;16.67;6.83;;;17.40;99.90;;;;;;5053736;28;20205;-60
2021/08/14 06:56:57;;;;;;;23.63;7.73;;;17.40;1.00;;;;;;5053888;28;20205;-63
2021/08/14 06:59:23;;;;;;;17.20;7.30;;;17.50;99.90;;;;;;5053368;28;20630;-61
2021/08/14 07:01:50;;;;;;;12.40;6.77;;;17.60;1.00;;;;;;5052528;28;20258;-61
2021/08/14 07:04:16;;;;;;;15.03;6.50;;;17.70;99.90;;;;;;5053415;28;20256;-62
2021/08/14 07:06:43;;;;;;;13.57;6.10;;;17.70;99.90;;;;;;5053763;28;20210;-62
2021/08/14 07:09:10;;;;;;;13.43;6.87;;;17.70;99.90;;;;;;5053403;28;20202;-64
2021/08/14 07:11:38;;;;;;;14.13;6.43;;;17.80;99.90;;;;;;5053048;28;20275;-65
2021/08/14 07:14:05;;;;;;;15.33;5.63;;;17.80;99.90;;;;;;5053387;28;20666;-62
2021/08/14 07:16:31;;;;;;;15.63;5.73;;;17.80;99.90;;;;;;5053427;28;20206;-61
2021/08/14 07:18:58;;;;;;;10.93;5.10;;;17.80;99.90;;;;;;5053123;28;20213;-65
2021/08/14 07:21:24;;;;;;;13.20;4.60;;;17.90;99.90;;;;;;5052881;28;20643;-65
2021/08/14 07:23:51;;;;;;;11.67;5.37;;;17.90;99.90;;;;;;5052364;28;20202;-66
2021/08/14 07:26:18;;;;;;;11.77;4.53;;;18.10;99.90;;;;;;5053521;28;20810;-65
2021/08/14 07:28:46;;;;;;;9.20;4.13;;;18.30;76.10;;;;;;5053009;28;20667;-65
2021/08/14 07:31:12;;;;;;;8.83;4.13;;;18.40;1.00;;;;;;5052320;28;20237;-65
2021/08/14 07:33:39;;;;;;;11.63;4.33;;;18.60;1.00;;;;;;5052865;28;20209;-65
2021/08/14 07:36:07;;;;;;;7.67;4.00;;;18.70;1.00;;;;;;5053018;28;20210;-65
2021/08/14 07:38:34;;;;;;;9.90;3.83;;;18.80;1.00;;;;;;5053122;28;20217;-65
2021/08/14 07:41:00;;;;;;;10.30;3.90;;;18.90;1.00;;;;;;5052533;28;20271;-64
2021/08/14 07:43:27;;;;;;;10.13;4.13;;;18.90;1.00;;;;;;5052694;28;20279;-65
2021/08/14 07:45:55;;;;;;;11.50;3.83;;;19.10;1.00;;;;;;5052369;28;20213;-64
2021/08/14 07:48:22;;;;;;;10.47;3.90;;;19.20;1.00;;;;;;5051581;28;20213;-66
2021/08/14 07:50:48;;;;;;;9.33;3.33;;;19.30;1.00;;;;;;5052504;28;20226;-67
2021/08/14 07:53:15;;;;;;;8.23;3.57;;;19.40;99.90;;;;;;5052428;28;20351;-67
2021/08/14 07:55:41;;;;;;;12.63;4.20;;;19.40;1.00;;;;;;5052355;28;20263;-65
2021/08/14 07:58:12;;;;;;;9.03;3.97;;;19.70;99.90;;;;;;5052468;28;20214;-65
2021/08/14 08:00:40;;;;;;;9.50;3.40;;;19.90;99.90;;;;;;5051821;28;20291;-65
2021/08/14 08:03:08;;;;;;;11.40;3.67;;;20.10;99.90;;;;;;5053083;28;20212;-65
2021/08/14 08:05:35;;;;;;;12.13;3.00;;;20.20;99.90;;;;;;5049729;28;20213;-64
2021/08/14 08:08:02;;;;;;;11.20;3.67;;;20.20;99.90;;;;;;5052744;28;20205;-64
2021/08/14 08:10:29;;;;;;;9.37;3.53;;;20.30;99.90;;;;;;5052089;28;20628;-67
2021/08/14 08:12:56;;;;;;;11.20;3.83;;;20.30;99.90;;;;;;5052350;28;20229;-63
2021/08/14 08:15:23;;;;;;;9.03;3.37;;;20.30;99.90;;;;;;5052173;28;20621;-63
2021/08/14 08:17:50;;;;;;;9.00;3.53;;;20.30;99.90;;;;;;5052370;28;20259;-65
2021/08/14 08:20:19;;;;;;;12.87;3.73;;;20.40;99.90;;;;;;5052026;28;20240;-65
2021/08/14 08:22:47;;;;;;;9.67;3.60;;;20.50;99.90;;;;;;5050599;28;20229;-66
2021/08/14 08:25:15;;;;;;;9.47;3.37;;;20.50;99.90;;;;;;5051695;28;20692;-66
2021/08/14 08:27:44;;;;;;;9.13;3.40;;;20.60;99.90;;;;;;5051638;28;20210;-66
2021/08/14 08:30:13;;;;;;;9.23;4.03;;;20.60;99.90;;;;;;5051899;28;20217;-65
2021/08/14 08:32:40;;;;;;;12.57;4.17;;;20.60;99.90;;;;;;5052035;28;20226;-64
2021/08/14 08:35:08;;;;;;;12.77;3.93;;;20.80;99.90;;;;;;5051763;28;20214;-66
2021/08/14 08:37:36;;;;;;;9.20;3.50;;;20.90;99.90;;;;;;5050580;28;20201;-66
2021/08/14 08:40:03;;;;;;;11.00;3.93;;;20.80;99.90;;;;;;5049540;28;20202;-66
2021/08/14 08:42:30;;;;;;;11.83;3.70;;;20.90;99.90;;;;;;5051870;28;20202;-65
2021/08/14 08:44:56;;;;;;;8.57;3.63;;;20.90;99.90;;;;;;5051234;28;20605;-64
2021/08/14 08:47:23;;;;;;;9.00;3.83;;;21.10;99.90;;;;;;5051670;28;20210;-63
2021/08/14 08:49:52;;;;;;;11.90;3.40;;;21.10;99.90;;;;;;5051447;28;20206;-63
2021/08/14 08:52:20;;;;;;;9.17;3.27;;;21.30;99.90;;;;;;5051853;28;20272;-63
2021/08/14 08:54:48;;;;;;;12.30;3.00;;;21.50;99.90;;;;;;5051267;28;20210;-63
2021/08/14 08:57:15;;;;;;;10.97;3.33;;;21.50;99.90;;;;;;5051003;28;20236;-63
2021/08/14 08:59:42;;;;;;;11.53;3.47;;;21.60;99.90;;;;;;5051550;28;20206;-65
2021/08/14 09:02:24;;;;;;;10.03;3.50;;;21.60;99.90;;;;;;5051923;28;20222;-65
2021/08/14 09:05:10;;;;;;;9.23;3.10;;;21.60;99.90;;;;;;5051559;28;20201;-65
2021/08/14 09:07:37;;;;;;;10.77;3.07;;;21.90;99.90;;;;;;5049418;28;20239;-64
2021/08/14 09:10:08;;;;;;;7.70;2.90;;;22.10;99.90;;;;;;5048519;28;20198;-65
2021/08/14 09:12:38;;;;;;;7.07;2.83;;;22.20;99.90;;;;;;5052186;28;20726;-66
2021/08/14 09:15:06;;;;;;;8.17;3.10;;;22.30;99.90;;;;;;5045426;28;20286;-64
2021/08/14 09:17:33;;;;;;;8.87;2.90;;;22.20;99.90;;;;;;5050792;28;20751;-65
2021/08/14 09:20:09;;;;;;;7.80;2.60;;;22.00;99.90;;;;;;5052104;28;20213;-65
2021/08/14 09:22:36;;;;;;;9.40;2.57;;;22.00;99.90;;;;;;5052068;28;20605;-67
2021/08/14 09:25:18;;;;;;;6.17;2.97;;;22.10;99.90;;;;;;5051065;28;20251;-66
2021/08/14 09:27:53;;;;;;;9.70;3.20;;;22.10;99.90;;;;;;5051443;28;20255;-66
2021/08/14 09:30:21;;;;;;;8.30;2.60;;;22.00;99.90;;;;;;5051410;28;20248;-65
2021/08/14 09:33:05;;;;;;;9.17;3.20;;;22.20;99.90;;;;;;5049956;28;20229;-64
2021/08/14 09:35:33;;;;;;;7.23;2.83;;;22.10;99.90;;;;;;5050481;28;20205;-64
2021/08/14 09:38:04;;;;;;;8.33;2.70;;;22.30;99.90;;;;;;5051871;28;20251;-64
2021/08/14 09:40:40;;;;;;;8.07;2.70;;;22.30;99.90;;;;;;5051365;28;20229;-64
2021/08/14 09:43:07;;;;;;;9.67;2.83;;;22.30;99.90;;;;;;5051828;28;20209;-64
2021/08/14 09:45:34;;;;;;;8.20;3.10;;;22.30;99.90;;;;;;5051506;28;20201;-65
2021/08/14 09:48:18;;;;;;;10.30;2.93;;;22.30;99.90;;;;;;5051550;28;20208;-65
2021/08/14 09:50:45;;;;;;;6.13;2.60;;;22.40;99.90;;;;;;5049466;28;20221;-65
2021/08/14 09:53:17;;;;;;;7.10;2.97;;;22.40;99.90;;;;;;5051680;28;20218;-64
2021/08/14 09:55:47;;;;;;;9.17;2.80;;;22.60;99.90;;;;;;5051534;28;20206;-65
2021/08/14 09:58:20;;;;;;;9.57;3.50;;;22.60;99.90;;;;;;5051422;28;20206;-64
2021/08/14 10:00:49;;;;;;;7.90;2.90;;;22.70;99.90;;;;;;5051272;28;20229;-65
2021/08/14 10:03:17;;;;;;;5.90;2.40;;;22.70;99.90;;;;;;5051237;28;20251;-65
2021/08/14 10:05:45;;;;;;;9.23;2.67;;;22.80;99.90;;;;;;5050741;28;20269;-65
2021/08/14 10:08:12;;;;;;;5.80;2.83;;;22.90;99.90;;;;;;5049362;28;20209;-65
2021/08/14 10:10:39;;;;;;;7.40;2.70;;;23.00;99.90;;;;;;5050618;28;20226;-65
2021/08/14 10:13:07;;;;;;;8.73;2.50;;;23.10;99.90;;;;;;5050530;28;20644;-65
2021/08/14 10:15:34;;;;;;;8.07;2.80;;;23.10;99.90;;;;;;5050666;28;20625;-65
2021/08/14 10:18:03;;;;;;;8.00;2.70;;;23.00;99.90;;;;;;5050386;28;20709;-64
2021/08/14 10:20:30;;;;;;;9.93;2.80;;;23.10;99.90;;;;;;5050323;28;20238;-65
2021/08/14 10:22:59;;;;;;;6.80;2.57;;;23.20;99.90;;;;;;5050770;28;20271;-65
2021/08/14 10:25:26;;;;;;;16.70;4.10;;;23.30;99.90;;;;;;5050895;28;20210;-65
2021/08/14 10:27:56;;;;;;;7.10;2.80;;;23.20;99.90;;;;;;5030213;28;20252;-65
2021/08/14 10:30:38;;;;;;;7.67;2.60;;;23.30;99.90;;;;;;5029891;28;20241;-64
2021/08/14 10:33:05;;;;;;;5.87;2.30;;;23.30;99.90;;;;;;5030850;28;20226;-64
2021/08/14 10:35:37;;;;;;;5.73;2.47;;;23.30;99.90;;;;;;5030513;28;20745;-65
2021/08/14 10:38:04;;;;;;;6.37;2.40;;;23.30;99.90;;;;;;5033346;28;20213;-66
2021/08/14 10:41:00;;;;;;;6.60;2.40;;;23.30;99.90;;;;;;5034150;28;20226;-64
2021/08/14 10:43:57;;;;;;;6.23;2.37;;;23.30;99.90;;;;;;5032854;28;20213;-64
2021/08/14 10:46:42;;;;;;;6.63;2.10;;;23.40;99.90;;;;;;5034456;28;20293;-66
2021/08/14 10:49:10;;;;;;;5.20;2.00;;;23.50;99.90;;;;;;5034134;28;20854;-66
2021/08/14 10:52:08;;;;;;;5.97;2.37;;;23.70;99.90;;;;;;5033708;28;20284;-66
2021/08/14 10:55:13;;;;;;;6.10;2.57;;;23.50;99.90;;;;;;5034137;28;20206;-66
2021/08/14 10:57:53;;;;;;;5.87;2.17;;;23.50;99.90;;;;;;5033575;28;20823;-66
2021/08/14 11:00:23;;;;;;;3.87;2.17;;;23.60;99.90;;;;;;5033901;28;20751;-66
2021/08/14 11:03:03;;;;;;;5.93;2.17;;;23.80;99.90;;;;;;5032271;28;20225;-66
2021/08/14 11:05:30;;;;;;;6.00;2.57;;;24.00;99.90;;;;;;5033425;28;20217;-65
2021/08/14 11:08:00;;;;;;;5.47;2.10;;;24.20;99.90;;;;;;5033742;28;20214;-66
2021/08/14 11:10:31;;;;;;;6.13;2.40;;;24.30;99.90;;;;;;5033289;28;20758;-66
2021/08/14 11:12:58;;;;;;;5.60;2.53;;;24.40;99.90;;;;;;5033656;28;20230;-60
2021/08/14 11:15:26;;;;;;;8.80;2.60;;;24.30;99.90;;;;;;5033138;28;20214;-63
2021/08/14 11:17:54;;;;;;;7.67;2.53;;;24.20;99.90;;;;;;5033698;28;20210;-63
2021/08/14 11:20:40;;;;;;;7.03;2.60;;;24.10;99.90;;;;;;5031046;28;20288;-62
2021/08/14 11:23:25;;;;;;;6.67;2.57;;;24.30;99.90;;;;;;5032745;28;20586;-61
2021/08/14 11:25:52;;;;;;;6.13;2.63;;;24.40;99.90;;;;;;5033220;28;20301;-63
2021/08/14 11:28:25;;;;;;;8.40;2.63;;;24.30;99.90;;;;;;5032999;28;20206;-63
2021/08/14 11:30:57;;;;;;;6.37;2.27;;;24.40;99.90;;;;;;5032844;28;20272;-63
2021/08/14 11:33:25;;;;;;;4.10;2.37;;;24.50;99.90;;;;;;5033507;28;20612;-65
2021/08/14 11:36:04;;;;;;;6.50;2.30;;;24.50;99.90;;;;;;5047968;28;20210;-62
2021/08/14 11:38:36;;;;;;;5.07;2.40;;;24.50;99.90;;;;;;5032328;28;20546;-64
2021/08/14 11:41:11;;;;;;;5.73;2.10;;;24.40;99.90;;;;;;5031356;28;20249;-62
2021/08/14 11:43:40;;;;;;;5.13;2.23;;;24.40;99.90;;;;;;5032570;28;20259;-61
2021/08/14 11:46:07;;;;;;;4.37;2.20;;;24.40;99.90;;;;;;5032577;28;20284;-62
2021/08/14 11:48:41;;;;;;;6.53;2.27;;;24.30;99.90;;;;;;5032447;28;20629;-61
2021/08/14 11:51:20;;;;;;;5.63;2.27;;;24.30;99.90;;;;;;5032420;28;20226;-63
2021/08/14 11:53:47;;;;;;;5.53;2.00;;;24.40;99.90;;;;;;5030545;28;20230;-64
2021/08/14 11:56:16;;;;;;;6.50;2.67;;;24.50;99.90;;;;;;5031708;28;20210;-65
2021/08/14 11:58:43;;;;;;;4.70;2.20;;;24.50;99.90;;;;;;5032907;28;20210;-61
2021/08/14 12:01:12;;;;;;;5.50;2.40;;;24.50;99.90;;;;;;5031969;28;20257;-62
2021/08/14 12:03:39;;;;;;;7.27;2.30;;;24.70;99.90;;;;;;5032531;28;20210;-62
2021/08/14 12:06:11;;;;;;;4.70;2.30;;;24.70;99.90;;;;;;5032577;28;20206;-61
2021/08/14 12:08:41;;;;;;;6.37;2.20;;;24.80;99.90;;;;;;5032179;28;20206;-60
2021/08/14 12:11:11;;;;;;;5.93;2.37;;;24.80;99.90;;;;;;5031689;28;20229;-62
2021/08/14 12:13:38;;;;;;;5.70;2.30;;;24.80;99.90;;;;;;5031960;28;20656;-62
2021/08/14 12:16:13;;;;;;;5.47;2.20;;;24.70;99.90;;;;;;5031678;28;20210;-58
2021/08/14 12:18:41;;;;;;;5.37;2.20;;;24.70;99.90;;;;;;5032134;28;20212;-60
2021/08/14 12:21:09;;;;;;;4.60;2.03;;;24.80;99.90;;;;;;5031636;28;20742;-61
2021/08/14 12:23:37;;;;;;;6.43;2.73;;;24.80;99.90;;;;;;5032250;28;20202;-61
2021/08/14 12:26:07;;;;;;;4.87;1.93;;;24.90;99.90;;;;;;5047870;28;20606;-60
2021/08/14 12:28:35;;;;;;;7.37;2.13;;;24.90;99.90;;;;;;5052450;28;20628;-56
2021/08/14 12:31:14;;;;;;;5.27;2.43;;;25.00;99.90;;;;;;5052246;28;20283;-60
2021/08/14 12:33:47;;;;;;;5.53;2.77;;;25.10;99.90;;;;;;5052656;28;20233;-60
2021/08/14 12:36:14;;;;;;;6.93;2.03;;;25.00;99.90;;;;;;5052620;28;20213;-63
2021/08/14 12:38:48;;;;;;;6.50;2.40;;;25.10;99.90;;;;;;5052490;28;20279;-65
2021/08/14 12:41:17;;;;;;;5.17;2.17;;;25.00;99.90;;;;;;5052046;28;20312;-65
2021/08/14 12:43:44;;;;;;;4.90;2.37;;;25.00;99.90;;;;;;5051836;28;20716;-62
2021/08/14 12:46:18;;;;;;;5.00;2.17;;;25.10;99.90;;;;;;5052431;28;20274;-63